createdAt,value
2018-06-15T00:02:28.753Z,90.07
2018-06-15T00:04:58.078Z,90.83
2018-06-15T00:07:27.510Z,91.19
2018-06-15T00:09:57.108Z,91.34
2018-06-15T00:12:27.628Z,92.25
2018-06-15T00:14:57.396Z,92.74
2018-06-15T00:17:27.981Z,91.81
2018-06-15T00:19:57.257Z,91.43
2018-06-15T00:22:26.479Z,91.49
2018-06-15T00:24:55.866Z,91.88
2018-06-15T00:27:25.102Z,92.26
2018-06-15T00:29:55.054Z,90.76
2018-06-15T00:32:24.436Z,88.99
2018-06-15T00:34:54.998Z,88.86
2018-06-15T00:37:24.323Z,89.58
2018-06-15T00:39:53.973Z,90.00
2018-06-15T00:42:23.698Z,89.71
2018-06-15T00:44:53.822Z,89.90
2018-06-15T00:47:24.303Z,89.90
2018-06-15T00:49:53.983Z,90.12
2018-06-15T00:52:23.495Z,90.54
2018-06-15T00:54:53.367Z,90.41
2018-06-15T00:57:47.489Z,90.68
2018-06-15T01:00:17.681Z,90.44
2018-06-15T01:02:47.079Z,91.40
2018-06-15T01:05:16.557Z,91.90
2018-06-15T01:07:46.863Z,91.69
2018-06-15T01:10:39.080Z,91.01
2018-06-15T01:16:17.784Z,90.80
2018-06-15T01:19:01.272Z,91.46
2018-06-15T01:24:44.388Z,91.09
2018-06-15T01:27:13.739Z,92.07
2018-06-15T01:29:43.092Z,92.64
2018-06-15T01:32:12.653Z,93.83
2018-06-15T01:34:42.059Z,94.46
2018-06-15T01:37:12.321Z,94.73
2018-06-15T01:39:46.308Z,95.12
2018-06-15T01:42:15.906Z,95.47
2018-06-15T01:44:45.534Z,96.30
2018-06-15T01:47:15.075Z,97.32
2018-06-15T01:49:44.574Z,96.28
2018-06-15T01:52:14.231Z,96.92
2018-06-15T01:54:44.347Z,97.53
2018-06-15T01:57:14.172Z,97.46
2018-06-15T01:59:43.989Z,98.84
2018-06-15T02:02:13.800Z,99.71
2018-06-15T02:04:45.359Z,99.07
2018-06-15T02:07:16.614Z,99.41
2018-06-15T02:09:48.900Z,99.77
2018-06-15T02:12:29.510Z,98.43
2018-06-15T02:14:59.739Z,99.04
2018-06-15T02:17:29.912Z,98.75
2018-06-15T02:20:04.996Z,98.67
2018-06-15T02:25:31.847Z,98.23
2018-06-15T02:28:01.664Z,97.85
2018-06-15T02:30:31.172Z,98.22
2018-06-15T02:33:02.915Z,98.89
2018-06-15T02:35:32.431Z,98.79
2018-06-15T02:38:02.000Z,98.34
2018-06-15T02:40:31.805Z,98.56
2018-06-15T02:43:01.304Z,98.47
2018-06-15T02:45:31.091Z,98.56
2018-06-15T02:48:02.772Z,98.80
2018-06-15T02:50:32.600Z,99.13
2018-06-15T02:53:02.661Z,99.00
2018-06-15T02:55:32.526Z,99.92
2018-06-15T02:58:02.010Z,99.09
2018-06-15T03:00:31.419Z,99.49
2018-06-15T03:04:33.617Z,97.75
2018-06-15T03:07:05.791Z,98.54
2018-06-15T03:09:36.765Z,98.05
2018-06-15T03:17:26.031Z,97.39
2018-06-15T03:29:11.311Z,96.08
2018-06-15T03:31:40.880Z,95.91
2018-06-15T03:34:10.209Z,94.89
2018-06-15T03:36:39.490Z,93.90
2018-06-15T03:39:10.980Z,92.96
2018-06-15T03:41:40.756Z,92.44
2018-06-15T03:44:10.008Z,91.84
2018-06-15T03:46:47.956Z,91.42
2018-06-15T03:49:17.243Z,91.29
2018-06-15T03:54:55.635Z,88.55
2018-06-15T03:57:25.193Z,87.61
2018-06-15T03:59:54.308Z,87.11
2018-06-15T04:02:23.390Z,85.53
2018-06-15T04:04:52.704Z,85.86
2018-06-15T04:07:22.641Z,83.99
2018-06-15T04:09:51.740Z,84.09
2018-06-15T04:12:21.058Z,83.19
2018-06-15T04:14:50.349Z,82.85
2018-06-15T04:17:19.662Z,80.27
2018-06-15T04:19:49.553Z,80.19
2018-06-15T04:22:19.209Z,78.40
2018-06-15T04:24:48.526Z,78.59
2018-06-15T04:27:17.737Z,78.02
2018-06-15T04:29:46.905Z,76.32
2018-06-15T04:32:16.198Z,76.21
2018-06-15T04:34:45.291Z,77.36
2018-06-15T04:37:14.438Z,79.03
2018-06-15T04:39:45.012Z,80.46
2018-06-15T04:42:14.098Z,81.17
2018-06-15T04:45:46.217Z,82.10
2018-06-15T04:48:15.136Z,82.40
2018-06-15T04:50:44.262Z,81.92
2018-06-15T04:53:13.745Z,82.41
2018-06-15T04:55:42.916Z,81.84
2018-06-15T04:58:12.135Z,79.18
2018-06-15T05:00:41.411Z,77.27
2018-06-15T05:03:14.068Z,74.85
2018-06-15T05:05:44.642Z,69.60
2018-06-15T05:08:13.662Z,65.91
2018-06-15T05:10:42.830Z,62.61
2018-06-15T05:13:12.288Z,63.41
2018-06-15T05:15:41.553Z,61.16
2018-06-15T05:18:10.680Z,60.73
2018-06-15T05:20:39.861Z,60.98
2018-06-15T05:23:09.042Z,59.10
2018-06-15T05:25:38.150Z,57.72
2018-06-15T05:28:07.318Z,57.39
2018-06-15T05:30:36.261Z,57.62
2018-06-15T05:33:05.336Z,57.18
2018-06-15T05:35:34.254Z,55.96
2018-06-15T05:38:03.135Z,53.98
2018-06-15T05:40:32.191Z,53.97
2018-06-15T05:43:01.407Z,54.78
2018-06-15T05:45:30.561Z,54.58
2018-06-15T05:47:59.646Z,53.49
2018-06-15T05:50:28.804Z,53.08
2018-06-15T05:52:57.742Z,55.33
2018-06-15T05:55:26.953Z,53.65
2018-06-15T05:57:56.803Z,53.70
2018-06-15T06:00:25.888Z,54.48
2018-06-15T06:02:54.928Z,57.92
2018-06-15T06:05:24.025Z,57.52
2018-06-15T06:07:53.311Z,55.85
2018-06-15T06:10:22.500Z,53.62
2018-06-15T06:12:51.575Z,51.66
2018-06-15T06:15:20.697Z,51.54
2018-06-15T06:17:49.791Z,54.32
2018-06-15T06:20:18.958Z,52.45
2018-06-15T06:22:48.036Z,51.73
2018-06-15T06:25:17.043Z,52.65
2018-06-15T06:27:46.052Z,55.16
2018-06-15T06:30:15.179Z,56.17
2018-06-15T06:32:44.401Z,60.01
2018-06-15T06:35:13.438Z,59.18
2018-06-15T06:37:42.671Z,63.84
2018-06-15T06:40:11.729Z,63.07
2018-06-15T06:42:41.031Z,64.77
2018-06-15T06:45:10.193Z,63.61
2018-06-15T06:47:39.220Z,62.01
2018-06-15T06:50:08.369Z,63.12
2018-06-15T06:52:37.456Z,62.79
2018-06-15T06:55:06.594Z,62.12
2018-06-15T06:57:35.707Z,60.72
2018-06-15T07:00:05.120Z,61.47
2018-06-15T07:02:34.259Z,61.33
2018-06-15T07:05:03.385Z,61.26
2018-06-15T07:07:32.535Z,60.23
2018-06-15T07:10:01.557Z,59.42
2018-06-15T07:12:30.692Z,59.04
2018-06-15T07:14:59.816Z,57.64
2018-06-15T07:17:29.000Z,57.63
2018-06-15T07:19:58.088Z,57.66
2018-06-15T07:22:27.244Z,57.28
2018-06-15T07:24:56.296Z,57.14
2018-06-15T07:27:25.379Z,56.95
2018-06-15T07:29:54.558Z,55.43
2018-06-15T07:32:23.690Z,54.98
2018-06-15T07:34:52.908Z,55.86
2018-06-15T07:37:22.128Z,54.41
2018-06-15T07:39:51.302Z,54.31
2018-06-15T07:42:20.876Z,56.07
2018-06-15T07:44:49.952Z,53.45
2018-06-15T07:47:19.100Z,55.18
2018-06-15T07:49:48.456Z,56.83
2018-06-15T07:52:17.929Z,55.85
2018-06-15T11:46:24.284Z,48.48
2018-06-15T11:49:10.723Z,48.45
2018-06-15T11:51:41.994Z,49.72
2018-06-15T11:54:11.365Z,49.28
2018-06-15T11:56:40.711Z,49.29
2018-06-15T11:59:10.382Z,51.24
2018-06-15T12:01:39.851Z,52.11
2018-06-15T12:04:09.225Z,52.46
2018-06-15T12:06:39.136Z,52.61
2018-06-15T12:09:16.505Z,52.41
2018-06-15T12:11:47.234Z,51.59
2018-06-15T12:14:16.488Z,49.92
2018-06-15T12:16:45.799Z,51.18
2018-06-15T12:19:15.324Z,51.76
2018-06-15T13:29:25.690Z,72.70
2018-06-15T13:31:55.042Z,69.81
2018-06-15T13:34:24.267Z,70.09
2018-06-15T13:36:53.823Z,67.78
2018-06-15T13:39:23.332Z,66.09
2018-06-15T13:47:37.789Z,65.09
2018-06-15T13:57:33.436Z,72.52
2018-06-15T15:00:38.154Z,90.91
2018-06-15T15:25:06.416Z,100.00
2018-06-15T15:27:35.734Z,100.00
2018-06-15T15:30:04.974Z,100.00
2018-06-15T15:32:34.201Z,100.00
2018-06-15T15:35:03.204Z,98.46
2018-06-15T15:37:32.362Z,99.06
2018-06-15T15:40:01.384Z,100.00
2018-06-15T15:42:30.401Z,100.00
2018-06-15T15:44:59.408Z,100.00
2018-06-15T15:47:28.840Z,98.71
2018-06-15T15:49:58.066Z,96.41
2018-06-15T15:52:27.198Z,95.53
2018-06-15T15:54:56.672Z,94.16
2018-06-15T15:57:25.677Z,92.78
2018-06-15T15:59:54.783Z,93.92
2018-06-15T16:02:24.177Z,92.17
2018-06-15T16:04:53.145Z,91.80
2018-06-15T16:07:22.252Z,91.13
2018-06-15T16:09:52.066Z,90.73
2018-06-15T16:12:21.279Z,89.00
2018-06-15T16:14:58.136Z,87.15
2018-06-15T16:17:27.371Z,86.78
2018-06-15T16:19:56.638Z,87.56
2018-06-15T16:22:26.268Z,86.81
2018-06-15T16:24:55.408Z,89.23
2018-06-15T16:27:24.480Z,91.12
2018-06-15T16:29:53.559Z,90.86
2018-06-15T16:32:22.657Z,91.68
2018-06-15T16:34:51.639Z,92.87
2018-06-15T16:37:21.322Z,92.09
2018-06-15T16:39:50.451Z,91.29
2018-06-15T16:42:19.637Z,91.48
2018-06-15T16:44:49.108Z,90.75
2018-06-15T16:47:18.485Z,91.55
2018-06-15T16:49:47.536Z,92.08
2018-06-15T16:52:17.056Z,93.20
2018-06-15T16:54:47.160Z,93.37
2018-06-15T16:57:17.651Z,93.10
2018-06-15T16:59:46.760Z,93.65
2018-06-15T17:02:15.780Z,93.56
2018-06-15T17:04:44.980Z,92.92
2018-06-15T17:07:14.201Z,93.77
2018-06-15T17:09:43.316Z,94.38
2018-06-15T17:12:12.487Z,94.45
2018-06-15T17:14:41.564Z,94.83
2018-06-15T17:17:10.749Z,95.14
2018-06-15T17:19:40.009Z,94.41
2018-06-15T17:22:09.214Z,95.09
2018-06-15T17:24:38.239Z,94.79
2018-06-15T17:27:07.557Z,95.16
2018-06-15T17:29:36.696Z,95.78
2018-06-15T17:32:05.792Z,96.29
2018-06-15T17:34:35.038Z,97.79
2018-06-15T17:37:04.150Z,97.65
2018-06-15T17:39:33.325Z,98.04
2018-06-15T17:42:02.451Z,98.87
2018-06-15T17:44:31.689Z,98.85
2018-06-15T17:47:00.643Z,98.90
2018-06-15T17:49:29.907Z,98.44
2018-06-15T17:51:59.213Z,99.42
2018-06-15T17:54:28.455Z,99.30
2018-06-15T17:56:57.607Z,99.36
2018-06-15T17:59:26.671Z,99.24
2018-06-15T18:01:55.815Z,99.43
2018-06-15T18:04:25.527Z,99.64
2018-06-15T18:06:54.620Z,100.00
2018-06-15T18:09:23.841Z,100.00
2018-06-15T18:11:53.024Z,100.00
2018-06-15T18:14:22.147Z,100.00
2018-06-15T18:16:51.221Z,100.00
2018-06-15T18:19:20.396Z,100.00
2018-06-15T18:21:49.509Z,100.00
2018-06-15T18:24:18.626Z,100.00
2018-06-15T18:26:47.778Z,100.00
2018-06-15T18:29:16.874Z,100.00
2018-06-15T18:31:45.991Z,100.00
2018-06-15T18:34:16.155Z,100.00
2018-06-15T18:36:45.252Z,100.00
2018-06-15T18:39:15.283Z,100.00
2018-06-15T18:41:45.064Z,100.00
2018-06-15T18:44:14.201Z,100.00
2018-06-15T18:46:43.245Z,100.00
2018-06-15T18:49:12.403Z,100.00
2018-06-15T18:51:41.444Z,100.00
2018-06-15T18:55:13.585Z,100.00
2018-06-15T18:57:48.679Z,100.00
2018-06-15T19:00:21.885Z,100.00
2018-06-15T19:02:51.019Z,100.00
2018-06-15T19:05:21.044Z,100.00
2018-06-15T19:07:50.269Z,100.00
2018-06-15T19:10:20.040Z,100.00
2018-06-15T19:12:50.416Z,100.00
2018-06-15T19:15:19.477Z,100.00
2018-06-15T19:17:48.556Z,100.00
2018-06-15T19:20:17.809Z,100.00
2018-06-15T19:22:47.058Z,100.00
2018-06-15T19:25:16.120Z,100.00
2018-06-15T19:27:45.159Z,100.00
2018-06-15T19:30:14.298Z,100.00
2018-06-15T19:32:43.341Z,100.00
2018-06-15T19:35:12.541Z,100.00
2018-06-15T19:37:41.727Z,100.00
2018-06-15T19:40:10.917Z,100.00
2018-06-15T19:42:40.097Z,100.00
2018-06-15T19:46:38.389Z,100.00
2018-06-15T19:49:07.428Z,100.00
2018-06-15T19:51:36.679Z,100.00
2018-06-15T19:54:05.855Z,100.00
2018-06-15T19:56:34.877Z,100.00
2018-06-15T19:59:04.252Z,100.00
2018-06-15T20:01:33.621Z,100.00
2018-06-15T20:04:02.809Z,100.00
2018-06-15T20:06:32.217Z,100.00
2018-06-15T20:09:01.362Z,100.00
2018-06-15T20:11:30.424Z,100.00
2018-06-15T20:13:59.921Z,100.00
2018-06-15T20:16:29.354Z,100.00
2018-06-15T20:18:58.615Z,100.00
2018-06-15T20:21:27.634Z,100.00
2018-06-15T20:23:56.731Z,100.00
2018-06-15T20:26:25.804Z,100.00
2018-06-15T20:28:54.849Z,100.00
2018-06-15T20:31:23.945Z,100.00
2018-06-15T20:33:53.410Z,100.00
2018-06-15T20:36:22.705Z,100.00
2018-06-15T20:38:51.834Z,99.25
2018-06-15T20:41:20.946Z,99.25
2018-06-15T20:45:19.652Z,99.13
2018-06-15T20:47:48.754Z,98.82
2018-06-15T20:50:17.802Z,98.37
2018-06-15T20:52:46.831Z,98.67
2018-06-15T20:55:15.826Z,98.74
2018-06-15T20:57:44.775Z,99.25
2018-06-15T21:00:13.973Z,99.23
2018-06-15T21:02:43.000Z,99.29
2018-06-15T21:05:12.056Z,100.00
2018-06-15T21:07:42.030Z,100.00
2018-06-15T21:10:11.247Z,100.00
2018-06-15T21:12:40.297Z,100.00
2018-06-15T21:15:09.977Z,100.00
2018-06-15T21:17:38.878Z,100.00
2018-06-15T21:20:08.146Z,100.00
2018-06-15T21:22:37.141Z,100.00
2018-06-15T21:25:06.344Z,100.00
2018-06-15T21:27:35.314Z,100.00
2018-06-15T21:30:04.529Z,100.00
2018-06-15T21:32:33.702Z,100.00
2018-06-15T21:35:02.849Z,100.00
2018-06-15T21:37:32.102Z,100.00
2018-06-15T21:40:01.221Z,100.00
2018-06-15T21:42:30.278Z,100.00
2018-06-15T21:44:59.494Z,100.00
2018-06-15T21:47:28.520Z,100.00
2018-06-15T21:49:57.648Z,100.00
2018-06-15T21:52:26.688Z,100.00
2018-06-15T21:54:55.819Z,100.00
2018-06-15T21:57:25.355Z,100.00
2018-06-15T21:59:54.408Z,100.00
2018-06-15T22:02:23.393Z,100.00
2018-06-15T22:04:52.431Z,100.00
2018-06-15T22:07:21.598Z,100.00
2018-06-15T22:09:50.705Z,100.00
2018-06-15T22:12:19.875Z,100.00
2018-06-15T22:14:48.963Z,100.00
2018-06-15T22:17:18.969Z,100.00
2018-06-15T22:19:48.922Z,100.00
2018-06-15T22:22:19.187Z,100.00
2018-06-15T22:24:51.946Z,100.00
2018-06-15T22:27:21.647Z,100.00
2018-06-15T22:29:53.107Z,100.00
2018-06-15T22:32:22.319Z,100.00
2018-06-15T22:34:51.319Z,100.00
2018-06-15T22:37:20.449Z,100.00
2018-06-15T22:39:55.206Z,100.00
2018-06-15T22:42:25.110Z,100.00
2018-06-15T22:44:54.452Z,100.00
2018-06-15T22:47:23.558Z,100.00
2018-06-15T22:49:52.590Z,100.00
2018-06-15T22:52:21.705Z,100.00
2018-06-15T22:54:51.901Z,100.00
2018-06-15T22:57:20.877Z,100.00
2018-06-15T22:59:49.997Z,100.00
2018-06-15T23:02:19.141Z,100.00
2018-06-15T23:04:48.499Z,100.00
2018-06-15T23:07:17.600Z,100.00
2018-06-15T23:09:47.031Z,100.00
2018-06-15T23:12:16.107Z,100.00
2018-06-15T23:14:45.175Z,100.00
2018-06-15T23:17:14.308Z,100.00
2018-06-15T23:19:43.327Z,100.00
2018-06-15T23:22:12.374Z,100.00
2018-06-15T23:24:41.367Z,99.28
2018-06-15T23:27:10.467Z,98.11
2018-06-15T23:29:39.418Z,98.84
2018-06-15T23:32:08.456Z,100.00
2018-06-15T23:34:37.636Z,100.00
2018-06-15T23:37:06.481Z,100.00
2018-06-15T23:39:35.525Z,100.00
2018-06-15T23:42:04.653Z,100.00
2018-06-15T23:44:33.724Z,100.00
2018-06-15T23:47:02.815Z,100.00
2018-06-15T23:49:31.777Z,100.00
2018-06-15T23:52:00.723Z,100.00
2018-06-15T23:54:29.885Z,99.01
2018-06-15T23:56:59.045Z,98.80
2018-06-15T23:59:28.009Z,98.22
